.
WxDataArchive / Data Records for 2012-03-20
2012-03-19 March 2012 2012-03-21

Data Records for Tuesday, 20 March 2012

Time	Temp	Chill	HIndex	Humid	Dewpt	 Wind 	HiWind	WindDir	Rain 	Barom 
-----	----	-----	------	-----	-----	------	------	-------	-----	----- 
00:00	70.9	70.9	70.9	57	54.9	0	2	45	0.00	30.007 
00:05	70.8	70.8	70.8	57	54.8	0	1	45	0.00	30.007 
00:10	70.4	70.4	70.4	58	54.9	0	1	45	0.00	30.007 
00:15	70.3	70.3	70.3	58	54.8	0	1	45	0.00	30.006 
00:20	69.9	69.9	69.9	58	54.4	0	2	45	0.00	30.006 
00:25	69.6	69.6	69.6	59	54.6	0	1	45	0.00	30.006 
00:30	69.4	69.4	69.4	59	54.4	0	1	45	0.00	30.004 
00:35	69.3	69.3	69.3	60	54.8	0	1	45	0.00	30.004 
00:40	69.3	69.3	69.3	60	54.8	0	1	45	0.00	30.004 
00:45	69.1	69.1	69.1	60	54.6	0	2	45	0.00	30.006 
00:50	68.9	68.9	68.9	60	54.4	0	1	45	0.00	30.006 
00:55	68.8	68.8	68.8	61	54.8	0	0	---	0.00	30.006 
01:00	68.6	68.6	68.6	61	54.6	0	2	45	0.00	30.002 
01:05	68.4	68.4	68.4	61	54.4	0	1	45	0.00	30.002 
01:10	68.3	68.3	68.3	62	54.8	0	1	45	0.00	30.002 
01:15	68.1	68.1	68.1	62	54.6	0	1	45	0.00	30.001 
01:20	67.9	67.9	67.9	62	54.4	0	2	45	0.00	30.001 
01:25	67.8	67.8	67.8	62	54.3	0	2	45	0.00	30.001 
01:30	67.6	67.6	67.6	63	54.5	0	1	45	0.00	30.002 
01:35	67.3	67.3	67.3	64	54.7	0	1	45	0.00	30.002 
01:40	67.1	67.1	67.1	64	54.5	0	0	---	0.00	30.002 
01:45	66.9	66.9	66.9	64	54.3	0	1	45	0.00	30.003 
01:50	66.9	66.9	66.9	65	54.7	0	0	---	0.00	30.003 
01:55	66.8	66.8	66.8	64	54.2	0	1	45	0.00	30.003 
02:00	66.8	66.8	66.8	64	54.2	0	1	45	0.00	30.005 
02:05	66.8	66.8	66.8	64	54.2	0	0	---	0.00	30.005 
02:10	66.8	66.8	66.8	64	54.2	0	1	45	0.00	30.005 
02:15	66.9	66.9	66.9	64	54.3	0	2	45	0.00	30.000 
02:20	67.1	67.1	67.1	63	54.1	0	3	90	0.00	30.000 
02:25	67.4	67.4	67.4	62	53.9	0	2	90	0.00	30.000 
02:30	67.6	67.6	67.6	62	54.1	0	2	90	0.00	30.001 
02:35	67.8	67.8	67.8	62	54.3	0	3	90	0.00	30.001 
02:40	67.8	67.8	67.8	62	54.3	0	2	90	0.00	30.001 
02:45	67.6	67.6	67.6	62	54.1	0	1	90	0.00	30.004 
02:50	67.3	67.3	67.3	62	53.8	0	1	90	0.00	30.004 
02:55	66.9	66.9	66.9	63	53.9	0	1	90	0.00	30.004 
03:00	66.6	66.6	66.6	63	53.6	0	1	90	0.00	30.003 
03:05	66.4	66.4	66.4	64	53.8	0	1	90	0.00	30.003 
03:10	66.1	66.1	66.1	64	53.6	0	2	90	0.00	30.003 
03:15	66.1	66.1	66.1	64	53.6	0	2	90	0.00	30.009 
03:20	66.3	66.3	66.3	64	53.7	0	2	90	0.00	30.009 
03:25	66.4	66.4	66.4	63	53.4	0	2	90	0.00	30.009 
03:30	66.6	66.6	66.6	63	53.6	0	2	90	0.00	30.008 
03:35	66.6	66.6	66.6	63	53.6	0	3	248	0.00	30.008 
03:40	66.4	66.4	66.4	63	53.4	0	2	248	0.00	30.008 
03:45	66.3	66.3	66.3	63	53.3	0	1	248	0.00	30.012 
03:50	66.1	66.1	66.1	64	53.6	0	1	248	0.00	30.012 
03:55	66.0	66.0	66.0	64	53.5	0	2	248	0.00	30.012 
04:00	65.8	65.8	65.8	64	53.3	0	1	248	0.00	30.013 
04:05	65.6	65.6	65.6	64	53.1	0	2	248	0.00	30.013 
04:10	65.5	65.5	65.5	65	53.4	0	1	248	0.00	30.013 
04:15	65.3	65.3	65.3	65	53.2	0	1	248	0.00	30.013 
04:20	65.2	65.2	65.2	65	53.1	0	1	248	0.00	30.013 
04:25	64.8	64.8	64.8	65	52.8	0	0	---	0.00	30.013 
04:30	64.5	64.5	64.5	66	52.9	0	2	248	0.00	30.014 
04:35	64.3	64.3	64.3	66	52.7	0	0	---	0.00	30.014 
04:40	64.0	64.0	64.0	67	52.8	0	0	---	0.00	30.014 
04:45	63.9	63.9	63.9	67	52.7	0	0	---	0.00	30.018 
04:50	63.5	63.5	63.5	68	52.7	0	0	---	0.00	30.018 
04:55	63.2	63.2	63.2	68	52.5	0	0	---	0.00	30.018 
05:00	62.9	62.9	62.9	68	52.2	0	0	---	0.00	30.025 
05:05	62.6	62.6	62.6	69	52.3	0	0	---	0.00	30.025 
05:10	62.1	62.1	62.1	70	52.2	0	0	---	0.00	30.025 
05:15	61.6	61.6	61.6	71	52.1	0	0	---	0.00	30.032 
05:20	61.3	61.3	61.3	73	52.6	0	0	---	0.00	30.032 
05:25	61.2	61.2	61.2	73	52.5	0	0	---	0.00	30.032 
05:30	61.0	61.0	61.0	73	52.3	0	0	---	0.00	30.036 
05:35	60.9	60.9	60.9	74	52.6	0	0	---	0.00	30.036 
05:40	60.7	60.7	60.7	74	52.4	0	0	---	0.00	30.036 
05:45	60.4	60.4	60.4	75	52.4	0	0	---	0.00	30.043 
05:50	60.1	60.1	60.1	76	52.5	0	0	---	0.00	30.043 
05:55	59.8	59.8	59.8	77	52.6	0	0	---	0.00	30.043 
06:00	59.5	59.5	59.5	78	52.6	0	0	---	0.00	30.044 
06:05	59.2	59.2	59.2	78	52.3	0	0	---	0.00	30.044 
06:10	58.9	58.9	58.9	79	52.4	0	0	---	0.00	30.044 
06:15	58.7	58.7	58.7	80	52.5	0	0	---	0.00	30.051 
06:20	58.4	58.4	58.4	81	52.6	0	0	---	0.00	30.051 
06:25	58.3	58.3	58.3	81	52.5	0	0	---	0.00	30.051 
06:30	58.3	58.3	58.3	82	52.8	0	1	248	0.00	30.052 
06:35	58.3	58.3	58.3	82	52.8	0	1	248	0.00	30.052 
06:40	58.3	58.3	58.3	82	52.8	0	0	---	0.00	30.052 
06:45	58.3	58.3	58.3	82	52.8	0	0	---	0.00	30.053 
06:50	58.1	58.1	58.1	82	52.6	0	0	---	0.00	30.053 
06:55	58.0	58.0	58.0	83	52.9	0	0	---	0.00	30.053 
07:00	57.8	57.8	57.8	83	52.7	0	0	---	0.00	30.058 
07:05	57.6	57.6	57.6	83	52.5	0	0	---	0.00	30.058 
07:10	57.6	57.6	57.6	83	52.5	0	1	248	0.00	30.058 
07:15	57.6	57.6	57.6	84	52.8	0	0	---	0.00	30.066 
07:20	57.6	57.6	57.6	84	52.8	0	1	248	0.00	30.066 
07:25	57.5	57.5	57.5	84	52.7	0	0	---	0.00	30.066 
07:30	57.5	57.5	57.5	84	52.7	0	0	---	0.00	30.072 
07:35	57.3	57.3	57.3	84	52.5	0	0	---	0.00	30.072 
07:40	57.3	57.3	57.3	84	52.5	0	0	---	0.00	30.072 
07:45	57.3	57.3	57.3	84	52.5	0	0	---	0.00	30.077 
07:50	57.3	57.3	57.3	84	52.5	0	0	---	0.00	30.077 
07:55	57.3	57.3	57.3	84	52.5	0	0	---	0.00	30.077 
08:00	57.3	57.3	57.3	84	52.5	0	0	---	0.00	30.085 
08:05	57.3	57.3	57.3	84	52.5	0	0	---	0.00	30.085 
08:10	57.3	57.3	57.3	84	52.5	0	0	---	0.00	30.085 
08:15	57.3	57.3	57.3	84	52.5	0	0	---	0.00	30.090 
08:20	57.3	57.3	57.3	85	52.8	0	0	---	0.00	30.090 
08:25	57.5	57.5	57.5	85	53.0	0	1	248	0.00	30.090 
08:30	57.6	57.6	57.6	85	53.1	0	1	248	0.00	30.096 
08:35	57.8	57.8	57.8	84	53.0	0	1	248	0.00	30.096 
08:40	58.1	58.1	58.1	84	53.3	0	1	248	0.00	30.096 
08:45	58.1	58.1	58.1	84	53.3	0	2	248	0.00	30.104 
08:50	58.3	58.3	58.3	84	53.5	0	1	248	0.00	30.104 
08:55	58.4	58.4	58.4	83	53.3	0	1	248	0.00	30.104 
09:00	58.4	58.4	58.4	83	53.3	0	1	248	0.00	30.105 
09:05	58.6	58.6	58.6	83	53.4	0	0	---	0.00	30.105 
09:10	58.7	58.7	58.7	83	53.5	0	1	248	0.00	30.105 
09:15	58.9	58.9	58.9	83	53.7	0	1	248	0.00	30.106 
09:20	59.0	59.0	59.0	83	53.8	0	1	248	0.00	30.106 
09:25	59.2	59.2	59.2	82	53.7	0	1	248	0.00	30.106 
09:30	59.6	59.6	59.6	82	54.1	0	1	248	0.00	30.107 
09:35	60.1	60.1	60.1	81	54.2	0	1	248	0.00	30.107 
09:40	60.9	60.9	60.9	79	54.3	0	2	248	0.00	30.107 
09:45	62.0	62.0	62.0	78	55.1	1	2	248	0.00	30.110 
09:50	62.9	62.9	62.9	76	55.2	0	2	292	0.00	30.110 
09:55	63.7	63.7	63.7	74	55.3	0	2	292	0.00	30.110 
10:00	64.5	64.5	64.5	72	55.3	1	2	292	0.00	30.115 
10:05	65.5	65.5	65.5	70	55.4	1	2	292	0.00	30.115 
10:10	66.1	66.1	66.1	69	55.6	0	2	292	0.00	30.115 
10:15	66.4	66.4	66.4	69	55.9	0	2	292	0.00	30.116 
10:20	66.8	66.8	66.8	69	56.3	0	1	292	0.00	30.116 
10:25	67.1	67.1	67.1	69	56.6	0	2	292	0.00	30.116 
10:30	67.6	67.6	67.6	67	56.2	1	2	292	0.00	30.117 
10:35	68.4	68.4	68.4	65	56.2	1	3	292	0.00	30.117 
10:40	69.3	69.3	69.3	64	56.6	1	3	158	0.00	30.117 
10:45	70.1	70.1	70.1	64	57.3	0	2	135	0.00	30.114 
10:50	70.8	70.8	70.8	62	57.1	1	2	135	0.00	30.114 
10:55	71.6	71.6	71.6	61	57.4	1	3	135	0.00	30.114 
11:00	72.5	72.5	72.5	60	57.8	1	3	135	0.00	30.110 
11:05	73.0	73.0	73.0	58	57.3	1	2	135	0.00	30.110 
11:10	73.7	73.7	73.7	55	56.5	1	4	135	0.00	30.110 
11:15	74.6	74.6	74.6	55	57.3	1	4	112	0.00	30.107 
11:20	75.1	75.1	77.6	55	57.8	1	3	90	0.00	30.107 
11:25	75.6	75.6	77.9	50	55.6	0	3	90	0.00	30.107 
11:30	75.8	75.8	78.0	54	57.9	0	2	90	0.00	30.108 
11:35	76.1	76.1	78.1	50	56.1	1	3	90	0.00	30.108 
11:40	76.3	76.3	78.2	50	56.3	1	2	90	0.00	30.108 
11:45	76.5	76.5	78.3	50	56.5	1	3	90	0.00	30.106 
11:50	76.7	76.7	78.4	47	54.9	1	3	90	0.00	30.106 
11:55	76.8	76.8	78.4	47	55.0	1	2	90	0.00	30.106 
12:00	77.0	77.0	78.5	48	55.8	1	3	90	0.00	30.104 
12:05	77.2	77.2	78.6	47	55.4	0	3	90	0.00	30.104 
12:10	77.6	77.6	78.8	46	55.2	0	2	90	0.00	30.104 
12:15	78.1	78.1	79.2	48	56.8	1	2	90	0.00	30.110 
12:20	78.1	78.1	79.2	47	56.2	0	1	90	0.00	30.110 
12:25	77.9	77.9	79.0	47	56.0	0	1	90	0.00	30.110 
12:30	78.3	78.3	79.2	45	55.2	0	1	90	0.00	30.108 
12:35	78.6	78.6	79.5	47	56.7	1	3	90	0.00	30.108 
12:40	79.0	79.0	79.9	49	58.2	0	2	90	0.00	30.108 
12:45	79.6	79.6	80.1	46	57.0	1	4	90	0.00	30.103 
12:50	79.4	79.4	79.8	44	55.6	1	3	90	0.00	30.103 
12:55	79.4	79.4	79.9	45	56.2	1	3	90	0.00	30.103 
13:00	79.4	79.4	79.9	45	56.2	1	3	112	0.00	30.097 
13:05	79.6	79.6	80.0	45	56.4	1	3	112	0.00	30.097 
13:10	79.9	79.9	80.1	43	55.4	2	5	112	0.00	30.097 
13:15	80.5	80.5	80.6	43	55.9	1	3	135	0.00	30.094 
13:20	80.9	80.9	80.8	42	55.6	2	4	135	0.00	30.094 
13:25	81.1	81.1	80.8	41	55.1	1	3	112	0.00	30.094 
13:30	81.6	81.6	81.3	42	56.3	1	4	112	0.00	30.090 
13:35	82.0	82.0	81.6	41	55.9	2	5	112	0.00	30.090 
13:40	82.4	82.4	82.3	44	58.3	1	3	112	0.00	30.090 
13:45	82.8	82.8	82.2	40	56.0	1	4	112	0.00	30.085 
13:50	82.8	82.8	82.2	40	56.0	2	5	248	0.00	30.085 
13:55	82.6	82.6	82.2	42	57.2	2	6	112	0.00	30.085 
14:00	82.6	82.6	82.2	42	57.2	1	4	112	0.00	30.078 
14:05	82.4	82.4	81.6	38	54.2	2	6	90	0.00	30.078 
14:10	82.4	82.4	81.7	39	54.9	2	5	112	0.00	30.078 
14:15	82.2	82.2	81.5	39	54.7	1	4	68	0.00	30.077 
14:20	82.2	82.2	81.7	41	56.1	0	1	68	0.00	30.077 
14:25	82.4	82.4	81.8	40	55.6	2	4	112	0.00	30.077 
14:30	82.2	82.2	81.5	39	54.7	1	4	68	0.00	30.075 
14:35	82.0	82.0	81.5	40	55.3	1	2	248	0.00	30.075 
14:40	81.8	81.8	81.4	41	55.8	1	5	112	0.00	30.075 
14:45	81.6	81.6	81.0	39	54.2	2	6	112	0.00	30.072 
14:50	81.6	81.6	81.1	40	54.9	1	3	90	0.00	30.072 
14:55	81.8	81.8	81.1	38	53.7	0	2	248	0.00	30.072 
15:00	81.8	81.8	81.3	40	55.1	1	4	112	0.00	30.063 
15:05	82.0	82.0	81.3	39	54.6	2	4	270	0.00	30.063 
15:10	82.2	82.2	81.4	38	54.0	1	5	248	0.00	30.063 
15:15	82.2	82.2	81.4	38	54.0	1	4	248	0.00	30.060 
15:20	82.0	82.0	81.2	38	53.9	1	4	112	0.00	30.060 
15:25	81.8	81.8	81.1	38	53.7	1	4	112	0.00	30.060 
15:30	82.0	82.0	81.3	39	54.6	1	4	68	0.00	30.058 
15:35	82.0	82.0	81.2	38	53.9	1	3	45	0.00	30.058 
15:40	82.2	82.2	81.5	39	54.7	0	3	270	0.00	30.058 
15:45	82.4	82.4	81.4	37	53.5	1	3	248	0.00	30.050 
15:50	82.2	82.2	81.2	36	52.6	2	5	112	0.00	30.050 
15:55	82.4	82.4	81.6	38	54.2	1	3	112	0.00	30.050 
16:00	82.6	82.6	81.6	37	53.7	1	4	112	0.00	30.044 
16:05	83.0	83.0	82.1	38	54.7	1	3	135	0.00	30.044 
16:10	83.6	83.6	82.8	39	56.0	2	4	90	0.00	30.044 
16:15	84.0	84.0	82.8	37	54.9	1	7	90	0.00	30.044 
16:20	84.0	84.0	82.6	35	53.4	2	6	90	0.00	30.044 
16:25	84.0	84.0	82.5	34	52.6	2	6	90	0.00	30.044 
16:30	83.6	83.6	82.4	36	53.8	1	5	90	0.00	30.041 
16:35	83.6	83.6	82.5	37	54.5	1	5	112	0.00	30.041 
16:40	83.6	83.6	82.1	34	52.2	1	4	112	0.00	30.041 
16:45	83.8	83.8	82.3	34	52.4	1	4	68	0.00	30.032 
16:50	83.6	83.6	82.2	35	53.0	1	3	112	0.00	30.032 
16:55	83.0	83.0	81.7	35	52.5	1	4	112	0.00	30.032 
17:00	83.0	83.0	81.6	34	51.7	3	10	90	0.00	30.031 
17:05	83.0	83.0	81.7	35	52.5	2	5	112	0.00	30.031 
17:10	83.0	83.0	81.6	34	51.7	2	5	112	0.00	30.031 
17:15	83.0	83.0	81.5	33	50.9	1	3	90	0.00	30.032 
17:20	83.0	83.0	81.7	35	52.5	1	3	90	0.00	30.032 
17:25	83.0	83.0	81.4	32	50.1	2	7	112	0.00	30.032 
17:30	82.8	82.8	81.7	36	53.1	2	8	90	0.00	30.032 
17:35	82.6	82.6	81.6	37	53.7	1	4	90	0.00	30.032 
17:40	82.2	82.2	81.4	38	54.0	1	4	68	0.00	30.032 
17:45	81.8	81.8	80.8	35	51.4	1	3	68	0.00	30.031 
17:50	81.6	81.6	80.7	36	52.0	1	2	292	0.00	30.031 
17:55	81.8	81.8	81.0	37	53.0	1	5	112	0.00	30.031 
18:00	81.6	81.6	80.8	37	52.8	0	2	135	0.00	30.029 
18:05	81.4	81.4	80.7	37	52.6	0	3	135	0.00	30.029 
18:10	81.4	81.4	80.4	34	50.3	1	4	90	0.00	30.029 
18:15	81.4	81.4	80.6	36	51.9	1	3	90	0.00	30.033 
18:20	81.6	81.6	80.7	36	52.0	0	2	338	0.00	30.033 
18:25	81.4	81.4	80.6	36	51.9	1	4	338	0.00	30.033 
18:30	81.4	81.4	80.5	35	51.1	1	5	90	0.00	30.034 
18:35	81.6	81.6	80.6	35	51.3	1	6	112	0.00	30.034 
18:40	81.6	81.6	80.7	36	52.0	0	2	135	0.00	30.034 
18:45	81.6	81.6	80.7	36	52.0	0	4	112	0.00	30.032 
18:50	81.4	81.4	80.6	36	51.9	1	3	90	0.00	30.032 
18:55	81.2	81.2	80.3	35	50.9	1	3	90	0.00	30.032 
19:00	81.1	81.1	80.3	35	50.8	0	3	112	0.00	30.033 
19:05	81.1	81.1	80.4	37	52.3	0	1	112	0.00	30.033 
19:10	80.7	80.7	80.0	35	50.5	0	2	112	0.00	30.033 
19:15	80.5	80.5	79.9	36	51.1	0	2	112	0.00	30.035 
19:20	80.3	80.3	79.8	36	50.9	1	3	112	0.00	30.035 
19:25	80.1	80.1	79.8	37	51.5	0	2	112	0.00	30.035 
19:30	79.8	79.8	79.6	38	51.9	0	1	112	0.00	30.038 
19:35	79.4	79.4	79.4	38	51.6	0	1	112	0.00	30.038 
19:40	79.0	79.0	79.2	39	51.9	0	1	112	0.00	30.038 
19:45	78.5	78.5	78.9	39	51.5	0	0	---	0.00	30.038 
19:50	77.9	77.9	78.7	41	52.3	0	0	---	0.00	30.038 
19:55	77.2	77.2	78.4	42	52.3	0	0	---	0.00	30.038 
20:00	76.5	76.5	78.1	43	52.3	0	0	---	0.00	30.040 
20:05	75.8	75.8	77.9	46	53.5	0	0	---	0.00	30.040 
20:10	74.9	74.9	74.9	46	52.7	0	1	112	0.00	30.040 
20:15	74.2	74.2	74.2	47	52.7	0	2	112	0.00	30.042 
20:20	73.7	73.7	73.7	46	51.6	0	0	---	0.00	30.042 
20:25	73.5	73.5	73.5	47	52.0	0	0	---	0.00	30.042 
20:30	73.3	73.3	73.3	48	52.4	0	0	---	0.00	30.047 
20:35	73.2	73.2	73.2	48	52.3	0	1	112	0.00	30.047 
20:40	73.2	73.2	73.2	48	52.3	0	1	112	0.00	30.047 
20:45	73.3	73.3	73.3	48	52.4	0	1	112	0.00	30.054 
20:50	73.3	73.3	73.3	49	53.0	0	1	112	0.00	30.054 
20:55	73.2	73.2	73.2	50	53.4	0	0	---	0.00	30.054 
21:00	73.0	73.0	73.0	50	53.2	0	0	---	0.00	30.058 
21:05	72.8	72.8	72.8	51	53.6	0	0	---	0.00	30.058 
21:10	72.5	72.5	72.5	51	53.3	0	0	---	0.00	30.058 
21:15	72.1	72.1	72.1	52	53.5	0	0	---	0.00	30.057 
21:20	71.8	71.8	71.8	53	53.7	0	1	112	0.00	30.057 
21:25	71.6	71.6	71.6	53	53.5	0	0	---	0.00	30.057 
21:30	71.5	71.5	71.5	54	54.0	0	0	---	0.00	30.063 
21:35	71.1	71.1	71.1	54	53.6	0	0	---	0.00	30.063 
21:40	70.8	70.8	70.8	54	53.3	0	0	---	0.00	30.063 
21:45	70.6	70.6	70.6	55	53.6	0	1	112	0.00	30.069 
21:50	70.6	70.6	70.6	55	53.6	0	1	112	0.00	30.069 
21:55	70.4	70.4	70.4	55	53.4	0	0	---	0.00	30.069 
22:00	70.3	70.3	70.3	55	53.4	0	1	112	0.00	30.075 
22:05	70.3	70.3	70.3	56	53.8	0	1	112	0.00	30.075 
22:10	70.3	70.3	70.3	56	53.8	0	1	112	0.00	30.075 
22:15	70.1	70.1	70.1	56	53.7	0	1	112	0.00	30.078 
22:20	69.9	69.9	69.9	56	53.5	0	0	---	0.00	30.078 
22:25	69.8	69.8	69.8	56	53.4	0	0	---	0.00	30.078 
22:30	69.4	69.4	69.4	57	53.5	0	0	---	0.00	30.081 
22:35	69.3	69.3	69.3	58	53.9	0	0	---	0.00	30.081 
22:40	68.9	68.9	68.9	58	53.5	0	0	---	0.00	30.081 
22:45	68.6	68.6	68.6	59	53.7	0	0	---	0.00	30.087 
22:50	68.3	68.3	68.3	60	53.9	0	0	---	0.00	30.087 
22:55	67.9	67.9	67.9	60	53.5	0	0	---	0.00	30.087 
23:00	67.8	67.8	67.8	60	53.4	0	1	112	0.00	30.094 
23:05	67.8	67.8	67.8	60	53.4	0	0	---	0.00	30.094 
23:10	67.6	67.6	67.6	61	53.7	0	0	---	0.00	30.094 
23:15	67.3	67.3	67.3	62	53.8	0	1	112	0.00	30.094 
23:20	67.1	67.1	67.1	63	54.1	0	4	112	0.00	30.094 
23:25	66.8	66.8	66.8	63	53.8	0	1	112	0.00	30.094 
23:30	66.6	66.6	66.6	63	53.6	0	0	---	0.00	30.094 
23:35	66.3	66.3	66.3	64	53.7	0	0	---	0.00	30.094 
23:40	65.8	65.8	65.8	65	53.7	0	1	112	0.00	30.094 
23:45	65.5	65.5	65.5	66	53.8	0	1	112	0.00	30.098 
23:50	65.3	65.3	65.3	66	53.6	0	0	---	0.00	30.098 
23:55	65.0	65.0	65.0	68	54.2	0	1	112	0.00	30.098 

CoCoRaHS
IN-AL-39
A2 Web Hosting
Creative Commons License
GoDaddy
search engine by freefind advanced

loaded 2018-11-17 22:31:05 • last modified 2010-11-18 10:43:29
Privacy PolicyDisclaimer
• wx.awcolley.com is powered by PmWiki v.2002016 •
• all content (unless otherwise noted) © 2018 A W Colley